CLIO2: Washita River Nr Clinton, OK

Data processed at Sun Apr 30 2017 22:41


All information presented herein is the property of the government of the United States of America and may be revised or deleted at any time without prior notice.
Dissemination of this information without the expressed written consent of the Public Affairs Office, Tulsa District U.S. Army Corps of Engineers is strictly prohibited.
These data are gathered electronically and, as presented, have not undergone any form of quality control. These data are not guaranteed to be valid or correct.
Go to home page.
Go to station list.
Go to station map.

Upstream stations:

Downstream station:
Previous Day
Next Day
Current Day
    
SHEF ID:       CLIO2     Washita River near Clinton, OK
STATION TYPE:  

               PRECIP     STAGE  RIV-FLOW  BAT-LOAD
                   in        ft       cfs      volt
              Ccp-Rev   Ccp-Rev   Ccp-Rev   Ccp-Rev
(US/Central)
04/30 00:00      0.00     10.26       638     12.48
04/30 01:00      0.00     10.15       620     12.42
04/30 02:00      0.00     10.05       603     12.42
04/30 03:00      0.00      9.96       588     12.42
04/30 04:00      0.00      9.85       569     12.36
04/30 05:00      0.00      9.77       556     12.30
04/30 06:00      0.00      9.69       543     12.30
04/30 07:00      0.00      9.68       541     12.30
04/30 08:00      0.00      9.69       543     12.30
04/30 09:00      0.00      9.72       548     12.89
04/30 10:00      0.00      9.76       554     13.24
04/30 11:00      0.00      9.78       558     13.30
04/30 12:00      0.00      9.80       561     13.53
04/30 13:00      0.00      9.82       564     13.71
04/30 14:00      0.00      9.81       563     13.53
04/30 15:00      0.00      9.80       561     13.53
04/30 16:00      0.00      9.77       556     13.59
04/30 17:00      0.00      9.73       549     13.59
04/30 18:00      0.00      9.69       543     13.53
04/30 19:00      0.00      9.63       533     13.30
04/30 20:00      0.00      9.57       523     13.18
04/30 21:00      0.00      9.51       513     12.60
04/30 22:00      0.00      9.45       503     12.48
04/30 23:00      ----      ----      ----      ----